CheckWX is a tool to help pilots better visualize weather data.  It is not intended as a substitute for an official pre-flight weather briefing.

21:08:06 UTC

KSPD METAR
Comanche National Grassland Airport
Springfield, Colorado, USA
Current

1 hour ago

KSPD 231956Z AUTO 00000KT 10/00 A3014 RMK AO1 SLP182 T01000000
Observed
Apr-23 @ 19:56 UTC
Visibility
Temperature
10°C / 50°F
Dewpoint
C / 32°F
Humidity
50%
Altimeter
30.14" Hg
Pressure
1020.62 hPa
Previous

2 hours ago

KSPD 231856Z AUTO 03005KT 11/M02 A3014 RMK AO1 SLP183 T01061017
Observed
Apr-23 @ 18:56 UTC
Wind
  • 030° at 5 KTS
Visibility
Temperature
11°C / 52°F
Dewpoint
-2°C / 28°F
Humidity
41%
Altimeter
30.14" Hg
Pressure
1020.62 hPa
Previous

3 hours ago

KSPD 231756Z AUTO 05006KT 11/M02 A3016 RMK AO1 SLP188 T01061022 10106 20044 58009
Observed
Apr-23 @ 17:56 UTC
Wind
  • 050° at 6 KTS
Visibility
Temperature
11°C / 52°F
Dewpoint
-2°C / 28°F
Humidity
41%
Altimeter
30.16" Hg
Pressure
1021.32 hPa